HKJK

Jomo Kenyatta International Airport

Nairobi, Kenya
METAR HKJK 241930Z 08014KT 9999 FEW021 22/13 Q1019
Observed Flight Rules
Feb-24 @ 19:30 UTC (44 minutes ago) Visual Flight Rules
Wind Visibility Clouds
80° at 14 knots 10,000+ meters
  • Few at 2,100' AGL
Temperatures Readings
Current 22°C / 72°F
Dewpoint 13°C / 55°F
Humidity 57%
Altimeter 30.09" Hg
Pressure 1019 hPa
Elevation 1624
METAR HKJK 241930Z 08014KT 9999 FEW021 22/13 Q1019
Observed Flight Rules
Feb-24 @ 19:30 UTC
(44 minutes ago)
VFR
Wind Visibility
80° at 14 knots 10,000+ meters
Clouds
  • Few at 2,100' AGL
Temperature Dewpoint
22°C / 72°F 13°C / 55°F
Humidity Altimeter Pressure
57% 30.09" Hg 1019 hPa